Time;durP1;ratioP1;P1;durP2;ratioP2;P2;SDS_P1;SDS_P2;PMS_P1;PMS_P2;Temp;Humidity;BMP_temperature;BMP_pressure;BME280_temperature;BME280_humidity;BME280_pressure;Samples;Min_cycle;Max_cycle;Signal;HPM_P1;HPM_P2
2023/08/23 00:01:52;;;;;;;6.63;2.83;;;24.20;85.00;;;;;;4942872;28;1066032;-73
2023/08/23 00:04:19;;;;;;;5.78;3.30;;;24.20;85.20;;;;;;4983465;28;20074;-73
2023/08/23 00:06:45;;;;;;;5.43;3.33;;;24.10;85.50;;;;;;4983027;28;20038;-74
2023/08/23 00:09:11;;;;;;;5.68;3.17;;;24.10;85.60;;;;;;4983701;28;20031;-73
2023/08/23 00:11:37;;;;;;;6.97;3.58;;;24.00;86.00;;;;;;4983180;28;20022;-73
2023/08/23 00:14:03;;;;;;;6.25;3.08;;;24.00;86.10;;;;;;4983317;28;20023;-72
2023/08/23 00:16:28;;;;;;;8.18;3.17;;;24.00;86.20;;;;;;4983464;28;20039;-73
2023/08/23 00:18:54;;;;;;;6.40;3.10;;;23.90;86.50;;;;;;4983463;28;20066;-74
2023/08/23 00:21:20;;;;;;;6.88;2.92;;;23.90;86.50;;;;;;4983632;28;20023;-73
2023/08/23 00:23:46;;;;;;;5.93;3.40;;;23.90;86.40;;;;;;4983061;28;20321;-73
2023/08/23 00:26:11;;;;;;;8.52;4.05;;;23.90;86.40;;;;;;4983860;28;20221;-74
2023/08/23 00:28:41;;;;;;;5.28;3.28;;;23.90;86.60;;;;;;4965715;28;20043;-75
2023/08/23 07:27:51;;;;;;;8.65;5.07;;;25.00;88.50;;;;;;5593952;23;20245;-76
2023/08/23 07:30:17;;;;;;;8.25;4.00;;;25.10;87.20;;;;;;4942163;29;20107;-80
2023/08/23 07:32:43;;;;;;;7.10;5.05;;;25.30;86.90;;;;;;4944656;29;20035;-75
2023/08/23 07:35:09;;;;;;;7.47;4.22;;;25.30;86.70;;;;;;4947355;29;20232;-75
2023/08/23 07:37:35;;;;;;;7.35;4.00;;;25.40;85.70;;;;;;4953962;29;20301;-78
2023/08/23 07:40:01;;;;;;;10.60;4.13;;;25.60;85.60;;;;;;4957300;28;20071;-79
2023/08/23 07:42:27;;;;;;;7.28;4.65;;;25.70;84.70;;;;;;4958907;28;20039;-72
2023/08/23 07:44:53;;;;;;;8.13;5.05;;;25.80;84.50;;;;;;4966945;28;20043;-76
2023/08/23 07:47:19;;;;;;;8.82;4.45;;;25.80;84.60;;;;;;4948346;29;20067;-75
2023/08/23 07:49:44;;;;;;;7.70;4.20;;;25.80;84.80;;;;;;4949545;29;20031;-76
2023/08/23 07:52:10;;;;;;;7.20;4.03;;;25.90;84.70;;;;;;4947776;29;20043;-75
2023/08/23 07:54:36;;;;;;;9.25;5.43;;;26.10;84.70;;;;;;4949031;29;20032;-77
2023/08/23 07:57:02;;;;;;;15.80;12.32;;;26.30;84.20;;;;;;4948516;29;20028;-75
2023/08/23 07:59:28;;;;;;;8.43;5.78;;;26.40;83.70;;;;;;4948879;29;20036;-76
2023/08/23 08:01:54;;;;;;;10.27;5.63;;;26.50;83.20;;;;;;4948020;29;20245;-77
2023/08/23 08:04:19;;;;;;;8.77;4.60;;;26.50;83.00;;;;;;4947955;29;20027;-76
2023/08/23 08:06:46;;;;;;;9.45;4.32;;;26.60;83.00;;;;;;4947944;29;20027;-75
2023/08/23 08:09:11;;;;;;;7.55;4.65;;;26.60;82.20;;;;;;4947492;29;20038;-76
2023/08/23 08:11:38;;;;;;;8.68;4.82;;;26.50;82.40;;;;;;4948744;29;20039;-76
2023/08/23 08:14:04;;;;;;;8.50;4.40;;;26.50;82.50;;;;;;4949814;29;20035;-74
2023/08/23 08:16:30;;;;;;;8.25;4.63;;;26.60;82.60;;;;;;4948882;29;20043;-75
2023/08/23 08:18:55;;;;;;;9.02;4.55;;;26.90;81.80;;;;;;4948792;29;20052;-75
2023/08/23 08:21:21;;;;;;;5.43;4.10;;;27.20;81.50;;;;;;4947694;29;20023;-74
2023/08/23 08:23:47;;;;;;;7.50;4.03;;;27.20;81.10;;;;;;4948340;29;20027;-76
2023/08/23 08:26:14;;;;;;;11.27;4.97;;;27.10;80.80;;;;;;4947796;29;20046;-75
2023/08/23 08:28:43;;;;;;;7.35;4.10;;;26.70;81.20;;;;;;4962897;29;20055;-79
2023/08/23 08:31:13;;;;;;;7.85;4.15;;;26.70;82.00;;;;;;4946758;29;20042;-74
2023/08/23 08:33:39;;;;;;;9.75;4.38;;;26.70;82.30;;;;;;4945398;29;20028;-75
2023/08/23 08:36:05;;;;;;;7.18;4.32;;;26.80;82.00;;;;;;4937595;29;20324;-76
2023/08/23 08:38:30;;;;;;;8.00;4.18;;;26.90;81.80;;;;;;4937568;29;20024;-78
2023/08/23 08:40:56;;;;;;;5.85;4.32;;;27.00;81.20;;;;;;4940656;29;20090;-73
2023/08/23 08:43:22;;;;;;;8.73;4.63;;;27.00;81.50;;;;;;4947987;29;20206;-74
2023/08/23 08:45:48;;;;;;;8.13;4.53;;;27.00;80.50;;;;;;4948019;29;20118;-76
2023/08/23 08:48:15;;;;;;;12.32;4.70;;;27.10;80.90;;;;;;4944156;29;20270;-75
2023/08/23 08:50:44;;;;;;;8.45;4.00;;;27.30;80.60;;;;;;4937474;29;20373;-77
2023/08/23 08:53:17;;;;;;;7.63;4.30;;;27.40;80.30;;;;;;4930923;29;20031;-76
2023/08/23 08:55:46;;;;;;;8.05;3.97;;;27.30;80.00;;;;;;4927052;29;20055;-75
2023/08/23 08:58:19;;;;;;;7.22;4.32;;;27.40;80.40;;;;;;4938406;29;20032;-76
2023/08/23 09:00:49;;;;;;;8.15;4.30;;;27.40;79.80;;;;;;4944038;29;20086;-75
2023/08/23 09:03:19;;;;;;;7.53;4.45;;;27.60;79.80;;;;;;4942141;29;20354;-76
2023/08/23 09:05:50;;;;;;;7.30;4.38;;;27.70;79.00;;;;;;4928676;29;20064;-76
2023/08/23 09:08:16;;;;;;;6.93;4.50;;;27.80;79.70;;;;;;4928423;29;20044;-74
2023/08/23 09:10:42;;;;;;;6.22;3.90;;;27.70;78.30;;;;;;4928886;29;20059;-76
2023/08/23 09:13:08;;;;;;;7.38;3.78;;;27.70;78.90;;;;;;4927933;29;20036;-76
2023/08/23 09:15:33;;;;;;;9.25;4.40;;;27.90;79.10;;;;;;4928351;29;20104;-76
2023/08/23 09:17:59;;;;;;;8.00;4.50;;;28.10;78.20;;;;;;4927072;29;20032;-74
2023/08/23 09:20:26;;;;;;;8.10;4.50;;;28.30;77.90;;;;;;4928120;29;20048;-75
2023/08/23 09:22:52;;;;;;;9.10;4.40;;;28.40;77.30;;;;;;4929163;29;20044;-74
2023/08/23 09:25:19;;;;;;;7.53;4.15;;;28.40;76.70;;;;;;4940814;29;20226;-76
2023/08/23 09:27:45;;;;;;;11.60;4.93;;;28.40;76.20;;;;;;4946945;29;20083;-74
2023/08/23 09:30:12;;;;;;;6.60;3.83;;;28.30;76.80;;;;;;4946450;29;20035;-74
2023/08/23 09:32:39;;;;;;;7.25;3.92;;;28.40;76.90;;;;;;4947351;29;20031;-73
2023/08/23 09:35:16;;;;;;;6.35;4.28;;;28.50;76.70;;;;;;4946991;29;20028;-74
2023/08/23 09:37:46;;;;;;;7.22;4.07;;;28.50;76.10;;;;;;4947015;29;20339;-74
2023/08/23 09:40:29;;;;;;;7.95;3.85;;;28.50;76.10;;;;;;4946694;29;20217;-76
2023/08/23 09:42:56;;;;;;;7.40;4.30;;;28.60;74.90;;;;;;4947088;29;20094;-74
2023/08/23 09:45:23;;;;;;;6.18;3.90;;;28.60;75.20;;;;;;4946437;29;20027;-75
2023/08/23 09:47:53;;;;;;;4.78;3.50;;;28.60;74.60;;;;;;4946932;29;20039;-75
2023/08/23 09:50:24;;;;;;;7.55;4.30;;;28.70;75.30;;;;;;4947013;29;20032;-74
2023/08/23 09:52:53;;;;;;;4.82;3.60;;;28.80;75.60;;;;;;4947323;29;20043;-73
2023/08/23 09:55:20;;;;;;;5.70;3.85;;;28.90;74.90;;;;;;4946768;29;20032;-74
2023/08/23 09:57:47;;;;;;;6.20;3.47;;;28.90;75.50;;;;;;4946650;29;20023;-74
2023/08/23 10:00:14;;;;;;;7.28;3.60;;;29.00;74.20;;;;;;4946337;29;20203;-75
2023/08/23 10:02:41;;;;;;;7.30;3.60;;;29.10;73.90;;;;;;4947222;29;20309;-73
2023/08/23 10:05:11;;;;;;;7.10;4.07;;;29.20;73.90;;;;;;4946595;29;20436;-73
2023/08/23 10:07:40;;;;;;;5.57;3.25;;;29.40;73.50;;;;;;4946256;29;20032;-73
2023/08/23 10:10:06;;;;;;;7.95;4.10;;;29.50;73.50;;;;;;4946087;29;20044;-73
2023/08/23 10:12:35;;;;;;;6.95;3.90;;;29.60;72.60;;;;;;4946788;29;20031;-76
2023/08/23 10:15:02;;;;;;;7.07;3.75;;;29.60;73.00;;;;;;4961681;28;20207;-73
2023/08/23 10:17:30;;;;;;;6.13;3.90;;;29.60;72.60;;;;;;4946299;29;20058;-79
2023/08/23 10:19:55;;;;;;;7.47;4.28;;;29.70;72.80;;;;;;4961206;29;20050;-75
2023/08/23 10:22:24;;;;;;;8.20;3.50;;;30.00;72.60;;;;;;4945886;29;20035;-71
2023/08/23 10:24:49;;;;;;;;;;;30.10;71.00;;;;;;4930628;29;20028;-73
2023/08/23 10:27:17;;;;;;;6.65;3.22;;;30.20;70.80;;;;;;4926735;29;20224;-74
2023/08/23 10:29:48;;;;;;;7.28;3.63;;;30.30;71.60;;;;;;4927182;29;20052;-73
2023/08/23 10:32:14;;;;;;;7.28;3.92;;;30.40;71.60;;;;;;4945063;29;20067;-74
2023/08/23 10:34:43;;;;;;;5.55;3.80;;;30.40;71.60;;;;;;4945918;29;20027;-75
2023/08/23 10:37:16;;;;;;;6.65;3.60;;;30.40;71.40;;;;;;4945264;29;20038;-74
2023/08/23 10:39:50;;;;;;;6.10;3.80;;;30.40;70.80;;;;;;4945560;29;20246;-76
2023/08/23 10:42:17;;;;;;;5.78;3.42;;;30.50;70.80;;;;;;4945769;29;20186;-75
2023/08/23 10:44:53;;;;;;;6.80;3.30;;;30.30;70.60;;;;;;4946138;29;20115;-73
2023/08/23 10:47:19;;;;;;;6.68;3.30;;;30.50;71.50;;;;;;4945292;29;20035;-73
2023/08/23 10:49:46;;;;;;;8.55;4.03;;;30.50;70.60;;;;;;4946094;29;20074;-75
2023/08/23 10:52:12;;;;;;;4.78;3.80;;;30.50;69.90;;;;;;4945696;29;20067;-74
2023/08/23 10:54:39;;;;;;;7.50;3.42;;;30.60;70.80;;;;;;4946056;29;20035;-74
2023/08/23 10:57:05;;;;;;;5.93;3.35;;;30.80;70.20;;;;;;4945599;29;20066;-73
2023/08/23 10:59:31;;;;;;;6.13;3.92;;;31.00;69.60;;;;;;4945302;29;20217;-73
2023/08/23 11:01:57;;;;;;;4.95;3.80;;;31.20;69.00;;;;;;4945605;29;20242;-76
2023/08/23 11:04:23;;;;;;;5.07;3.35;;;31.30;68.30;;;;;;4945613;29;20043;-75
2023/08/23 11:06:50;;;;;;;5.65;3.17;;;31.60;66.20;;;;;;4945614;29;20031;-73
2023/08/23 11:09:16;;;;;;;6.10;3.40;;;31.50;66.50;;;;;;4944829;29;20273;-74
2023/08/23 11:11:43;;;;;;;6.82;3.40;;;31.60;67.50;;;;;;4945425;29;20027;-76
2023/08/23 11:14:09;;;;;;;7.00;3.28;;;31.50;66.80;;;;;;4945231;29;20300;-78
2023/08/23 11:16:35;;;;;;;8.43;3.80;;;31.80;66.70;;;;;;4945791;29;20063;-79
2023/08/23 11:19:05;;;;;;;6.18;3.75;;;32.20;66.30;;;;;;4945117;29;20233;-80
2023/08/23 11:21:32;;;;;;;6.35;3.22;;;32.70;65.90;;;;;;4945704;29;20067;-79
2023/08/23 11:24:01;;;;;;;4.95;3.05;;;33.40;64.30;;;;;;4944180;29;20035;-77
2023/08/23 11:26:26;;;;;;;5.05;2.78;;;33.80;63.70;;;;;;4945013;29;20046;-78
2023/08/23 11:28:52;;;;;;;5.03;3.03;;;34.20;62.30;;;;;;4945598;29;20078;-76
2023/08/23 11:31:20;;;;;;;5.63;2.70;;;34.70;60.80;;;;;;4945300;29;20257;-78
2023/08/23 11:33:46;;;;;;;6.65;3.42;;;35.20;60.50;;;;;;4944078;29;20039;-76
2023/08/23 11:36:12;;;;;;;6.32;2.70;;;35.70;59.90;;;;;;4944711;29;20031;-74
2023/08/23 11:38:40;;;;;;;7.22;2.45;;;36.50;58.80;;;;;;4960192;29;20044;-74
2023/08/23 11:41:08;;;;;;;6.22;2.50;;;37.30;57.80;;;;;;4912904;29;20042;-75
2023/08/23 11:43:34;;;;;;;4.53;2.53;;;37.80;57.10;;;;;;4944899;29;20277;-75
2023/08/23 11:46:00;;;;;;;4.88;2.35;;;38.50;55.30;;;;;;4945116;29;20019;-74
2023/08/23 11:48:26;;;;;;;6.32;2.33;;;39.20;55.20;;;;;;4944872;29;20302;-77
2023/08/23 11:50:52;;;;;;;3.17;2.30;;;39.80;54.50;;;;;;4928602;29;20031;-73
2023/08/23 11:53:18;;;;;;;5.18;2.35;;;40.10;53.50;;;;;;4928100;29;20031;-73
2023/08/23 11:55:44;;;;;;;4.05;2.63;;;40.10;53.40;;;;;;4945461;29;20028;-73
2023/08/23 11:58:10;;;;;;;7.18;2.42;;;40.00;52.70;;;;;;4944921;29;20047;-74
2023/08/23 12:00:36;;;;;;;5.25;2.55;;;40.20;52.70;;;;;;4944697;29;20099;-74
2023/08/23 12:03:02;;;;;;;6.45;2.35;;;40.00;52.80;;;;;;4945080;29;20051;-74
2023/08/23 12:05:28;;;;;;;6.28;2.38;;;40.00;53.00;;;;;;4945065;29;20058;-74
2023/08/23 12:07:54;;;;;;;5.18;2.50;;;40.30;52.70;;;;;;4945002;29;20309;-76
2023/08/23 12:10:20;;;;;;;5.03;2.30;;;40.90;52.30;;;;;;4944468;29;20024;-75
2023/08/23 12:12:45;;;;;;;3.47;2.03;;;41.30;51.30;;;;;;4944669;29;20046;-75
2023/08/23 12:15:11;;;;;;;4.95;2.50;;;41.70;51.60;;;;;;4945464;29;20038;-74
2023/08/23 12:17:37;;;;;;;4.18;2.33;;;42.50;50.90;;;;;;4945800;29;20361;-74
2023/08/23 12:20:04;;;;;;;4.97;1.90;;;42.70;50.50;;;;;;4946049;29;20058;-75
2023/08/23 12:22:30;;;;;;;5.95;2.15;;;42.00;50.70;;;;;;4948234;29;20035;-76
2023/08/23 12:24:56;;;;;;;;;;;42.90;50.40;;;;;;4977746;28;20027;-72
2023/08/23 12:27:22;;;;;;;4.10;2.00;;;42.80;50.10;;;;;;4977131;28;20034;-71
2023/08/23 12:29:48;;;;;;;6.00;2.30;;;43.30;50.20;;;;;;4966497;28;20312;-74
2023/08/23 12:32:14;;;;;;;3.83;2.00;;;43.80;49.40;;;;;;4949502;29;20051;-74
2023/08/23 12:34:40;;;;;;;4.82;2.42;;;43.80;48.90;;;;;;4948928;29;20313;-75
2023/08/23 12:37:05;;;;;;;3.40;1.80;;;43.80;49.30;;;;;;4949849;29;20098;-77
2023/08/23 12:39:31;;;;;;;6.00;2.30;;;44.50;48.30;;;;;;4948458;29;20016;-76
2023/08/23 12:41:57;;;;;;;2.92;2.00;;;44.40;47.90;;;;;;4947456;29;20045;-76
2023/08/23 12:44:23;;;;;;;4.10;1.90;;;44.40;48.10;;;;;;4948271;29;20098;-76
2023/08/23 12:46:49;;;;;;;4.07;2.00;;;44.50;47.80;;;;;;4948501;29;20027;-75
2023/08/23 12:49:15;;;;;;;5.50;2.73;;;44.90;47.60;;;;;;4947800;29;20099;-75
2023/08/23 12:51:44;;;;;;;4.13;2.30;;;45.40;47.50;;;;;;4948416;29;20095;-75
2023/08/23 12:54:10;;;;;;;5.15;2.10;;;45.30;47.00;;;;;;4946848;29;20102;-75
2023/08/23 12:56:36;;;;;;;5.13;2.23;;;45.20;47.50;;;;;;4947644;29;20046;-76
2023/08/23 12:59:02;;;;;;;4.55;1.92;;;45.30;46.90;;;;;;4946768;29;20115;-76
2023/08/23 13:01:30;;;;;;;5.18;2.00;;;45.20;47.20;;;;;;4947718;29;20027;-76
2023/08/23 13:03:55;;;;;;;3.80;1.83;;;44.80;47.30;;;;;;4947923;29;20036;-76
2023/08/23 13:06:21;;;;;;;7.15;2.10;;;45.10;47.30;;;;;;4947212;28;20046;-75
2023/08/23 13:08:47;;;;;;;7.95;2.10;;;44.40;47.60;;;;;;4947783;29;20059;-75
2023/08/23 13:11:13;;;;;;;4.03;1.85;;;44.90;47.60;;;;;;4947752;29;20095;-75
2023/08/23 13:13:42;;;;;;;3.10;1.83;;;44.60;47.20;;;;;;4947692;29;20217;-75
2023/08/23 13:16:07;;;;;;;5.50;1.92;;;45.30;47.00;;;;;;4947443;29;20031;-77
2023/08/23 13:18:33;;;;;;;3.50;1.90;;;46.00;46.90;;;;;;4947268;29;20043;-77
2023/08/23 13:20:59;;;;;;;6.18;2.10;;;46.00;46.60;;;;;;4946829;29;20038;-75
2023/08/23 13:23:25;;;;;;;4.43;2.10;;;46.10;46.50;;;;;;4947344;29;20044;-75
2023/08/23 13:25:51;;;;;;;5.50;2.17;;;46.50;46.50;;;;;;4947641;29;20221;-76
2023/08/23 13:28:17;;;;;;;7.53;2.20;;;46.60;46.10;;;;;;4946292;29;20047;-76
2023/08/23 13:30:43;;;;;;;5.05;1.98;;;46.20;45.90;;;;;;4946926;29;20035;-77
2023/08/23 13:33:09;;;;;;;3.70;2.00;;;45.60;46.70;;;;;;4940201;29;20251;-77
2023/08/23 13:35:35;;;;;;;4.30;1.80;;;45.30;47.00;;;;;;4936458;29;20332;-79
2023/08/23 13:38:01;;;;;;;6.85;1.98;;;45.80;46.90;;;;;;4941361;29;20031;-78
2023/08/23 13:40:27;;;;;;;6.85;2.13;;;45.40;46.80;;;;;;4934028;29;20336;-75
2023/08/23 13:42:53;;;;;;;3.70;1.83;;;45.20;46.80;;;;;;4966384;28;20043;-77
2023/08/23 13:45:18;;;;;;;5.15;2.00;;;45.80;47.00;;;;;;4965154;29;20054;-78
2023/08/23 13:47:44;;;;;;;3.28;1.67;;;45.40;46.80;;;;;;4965557;29;20035;-79
2023/08/23 13:50:10;;;;;;;4.40;2.10;;;44.90;47.20;;;;;;4967861;28;20095;-74
2023/08/23 13:52:36;;;;;;;6.45;2.00;;;44.70;47.00;;;;;;4965802;28;20313;-77
2023/08/23 13:55:01;;;;;;;5.18;2.05;;;44.90;47.10;;;;;;4927904;29;20032;-75
2023/08/23 13:57:29;;;;;;;3.05;2.00;;;45.60;46.80;;;;;;4927545;29;20306;-78
2023/08/23 13:59:55;;;;;;;3.67;1.70;;;46.60;46.20;;;;;;4927764;29;20044;-79
2023/08/23 14:02:20;;;;;;;5.18;2.20;;;46.80;45.90;;;;;;4927259;29;20369;-79
2023/08/23 14:04:46;;;;;;;4.70;2.10;;;47.30;45.70;;;;;;4943144;29;20039;-79
2023/08/23 14:07:12;;;;;;;3.70;1.70;;;47.30;45.10;;;;;;4927967;29;20046;-79
2023/08/23 14:09:37;;;;;;;5.80;1.73;;;47.20;45.30;;;;;;4927377;29;20199;-77
2023/08/23 14:12:05;;;;;;;3.03;1.63;;;47.10;45.00;;;;;;4928024;29;20036;-76
2023/08/23 14:14:31;;;;;;;3.53;1.60;;;46.70;45.00;;;;;;4927336;29;20039;-77
2023/08/23 14:17:00;;;;;;;6.63;2.00;;;46.60;45.30;;;;;;4927651;29;20036;-77
2023/08/23 14:19:29;;;;;;;5.88;1.80;;;46.80;45.10;;;;;;4926176;29;20036;-78
2023/08/23 14:21:55;;;;;;;6.05;1.70;;;47.30;45.00;;;;;;4927690;29;20083;-80
2023/08/23 14:24:21;;;;;;;3.40;1.70;;;48.00;44.10;;;;;;4939570;29;20342;-79
2023/08/23 14:26:47;;;;;;;3.57;1.30;;;48.10;43.70;;;;;;4945655;29;20050;-77
2023/08/23 14:29:13;;;;;;;5.67;1.97;;;47.20;44.20;;;;;;4946695;29;20110;-74
2023/08/23 14:31:38;;;;;;;4.30;1.85;;;46.50;44.80;;;;;;4945636;29;20095;-77
2023/08/23 14:34:04;;;;;;;3.58;1.42;;;46.30;45.30;;;;;;4961329;29;20046;-77
2023/08/23 14:36:30;;;;;;;3.90;1.83;;;46.80;44.90;;;;;;4946053;29;20034;-77
2023/08/23 14:38:56;;;;;;;5.23;1.73;;;47.40;44.20;;;;;;4946665;29;20024;-81
2023/08/23 14:41:21;;;;;;;4.33;1.90;;;47.80;43.60;;;;;;4960911;28;20036;-76
2023/08/23 14:43:47;;;;;;;2.83;1.53;;;47.80;43.60;;;;;;4946674;29;20288;-77
2023/08/23 14:46:13;;;;;;;3.53;2.00;;;47.80;43.30;;;;;;4945417;29;20031;-77
2023/08/23 14:48:38;;;;;;;4.47;1.70;;;48.20;42.90;;;;;;4945719;29;20039;-79
2023/08/23 14:51:05;;;;;;;8.40;2.07;;;47.90;42.90;;;;;;4945176;29;20229;-76
2023/08/23 14:53:30;;;;;;;6.50;1.65;;;47.60;43.20;;;;;;4944716;29;20035;-77
2023/08/23 14:55:56;;;;;;;5.97;1.73;;;47.40;43.20;;;;;;4946102;29;20032;-77
2023/08/23 14:58:22;;;;;;;2.97;1.37;;;46.30;43.60;;;;;;4945868;29;20194;-77
2023/08/23 15:00:47;;;;;;;5.55;1.50;;;45.70;44.00;;;;;;4945175;29;20031;-77
2023/08/23 15:03:13;;;;;;;3.55;1.60;;;45.30;44.40;;;;;;4946161;29;20102;-77
2023/08/23 15:05:39;;;;;;;6.40;1.65;;;45.60;44.10;;;;;;4944244;29;20035;-77
2023/08/23 15:08:05;;;;;;;3.30;1.70;;;45.70;44.00;;;;;;4944853;29;20049;-77
2023/08/23 15:10:32;;;;;;;2.60;1.42;;;46.20;43.60;;;;;;4946744;29;20047;-76
2023/08/23 15:12:58;;;;;;;5.65;1.52;;;46.60;43.20;;;;;;4946203;29;20222;-76
2023/08/23 15:15:23;;;;;;;3.87;1.63;;;47.50;42.80;;;;;;4945599;29;20059;-75
2023/08/23 15:17:49;;;;;;;5.20;1.60;;;48.20;42.30;;;;;;4945478;29;20309;-76
2023/08/23 15:20:15;;;;;;;2.70;1.20;;;48.10;42.20;;;;;;4945777;29;20044;-74
2023/08/23 15:22:42;;;;;;;4.47;1.35;;;48.10;41.80;;;;;;4944152;29;20058;-76
2023/08/23 15:25:09;;;;;;;4.07;1.50;;;47.40;42.00;;;;;;4926684;29;20107;-75
2023/08/23 15:27:35;;;;;;;;;;;46.30;42.90;;;;;;4927001;29;20146;-77
2023/08/23 15:30:01;;;;;;;4.10;1.50;;;46.30;43.50;;;;;;4929862;29;20200;-74
2023/08/23 15:32:26;;;;;;;4.47;1.90;;;45.70;43.30;;;;;;4960035;29;20027;-78
2023/08/23 15:34:53;;;;;;;4.32;1.42;;;45.90;43.00;;;;;;4945813;29;20293;-75
2023/08/23 15:37:22;;;;;;;3.53;1.35;;;46.70;42.80;;;;;;4945572;29;20043;-78
2023/08/23 15:39:49;;;;;;;4.68;1.60;;;47.30;42.10;;;;;;4944997;29;20079;-74
2023/08/23 15:42:15;;;;;;;4.85;1.70;;;45.80;42.60;;;;;;4946765;29;20028;-76
2023/08/23 15:44:40;;;;;;;4.93;1.52;;;44.70;43.40;;;;;;4945336;29;20128;-76
2023/08/23 15:47:07;;;;;;;4.43;1.58;;;43.40;44.20;;;;;;4945641;29;20310;-77
2023/08/23 15:49:33;;;;;;;3.08;1.70;;;42.10;45.10;;;;;;4928050;28;20112;-77
2023/08/23 15:51:59;;;;;;;4.22;1.73;;;40.60;46.20;;;;;;4945524;29;20036;-77
2023/08/23 15:54:25;;;;;;;3.72;1.60;;;39.60;46.90;;;;;;4945599;29;20032;-77
2023/08/23 15:56:50;;;;;;;3.35;1.83;;;38.70;47.90;;;;;;4945691;29;20028;-75
2023/08/23 15:59:18;;;;;;;4.40;1.80;;;38.20;48.30;;;;;;4944521;29;20043;-77
2023/08/23 16:01:43;;;;;;;2.60;1.67;;;38.20;48.30;;;;;;4943966;29;20055;-77
2023/08/23 16:04:09;;;;;;;3.75;1.98;;;38.00;48.50;;;;;;4946123;29;20052;-76
2023/08/23 16:06:35;;;;;;;3.17;1.58;;;38.00;48.50;;;;;;4963761;29;20214;-76
2023/08/23 16:09:00;;;;;;;4.80;1.50;;;38.50;48.10;;;;;;4948851;29;20059;-75
2023/08/23 16:11:27;;;;;;;4.25;1.45;;;39.60;47.20;;;;;;4931731;29;20368;-78
2023/08/23 16:13:53;;;;;;;3.97;1.50;;;40.70;46.10;;;;;;4948035;29;20040;-76
2023/08/23 16:16:19;;;;;;;4.95;1.45;;;41.40;44.90;;;;;;4949212;29;20039;-76
2023/08/23 16:18:44;;;;;;;4.80;1.60;;;41.20;44.70;;;;;;4947967;29;20035;-76
2023/08/23 16:21:10;;;;;;;5.50;1.83;;;40.60;45.20;;;;;;4963942;29;20043;-75
2023/08/23 16:23:36;;;;;;;3.45;1.40;;;40.00;45.70;;;;;;4942089;29;20083;-77
2023/08/23 16:26:02;;;;;;;5.38;1.50;;;39.70;45.70;;;;;;4929474;29;20067;-77
2023/08/23 16:28:29;;;;;;;3.95;1.83;;;39.00;46.40;;;;;;4928856;29;20087;-76
2023/08/23 16:30:54;;;;;;;3.42;1.65;;;38.70;46.50;;;;;;4940216;29;20035;-76
2023/08/23 16:33:20;;;;;;;6.95;1.70;;;37.70;47.50;;;;;;4948724;29;20085;-77
2023/08/23 16:35:46;;;;;;;3.63;1.92;;;36.90;48.30;;;;;;4947960;29;20098;-79
2023/08/23 16:38:12;;;;;;;3.92;1.63;;;36.00;49.10;;;;;;4948489;29;20235;-79
2023/08/23 16:40:38;;;;;;;5.07;2.00;;;35.40;50.00;;;;;;4948130;29;20066;-77
2023/08/23 16:43:05;;;;;;;4.30;1.75;;;34.70;50.80;;;;;;4948553;29;20032;-77
2023/08/23 16:45:32;;;;;;;4.50;1.90;;;34.20;51.60;;;;;;4947925;29;20055;-79
2023/08/23 16:47:57;;;;;;;5.15;1.88;;;33.80;52.00;;;;;;4948515;29;20067;-76
2023/08/23 16:50:24;;;;;;;3.67;1.80;;;33.30;52.80;;;;;;4947314;29;20027;-76
2023/08/23 16:52:49;;;;;;;5.35;2.20;;;33.00;53.20;;;;;;4947692;29;20062;-78
2023/08/23 16:55:15;;;;;;;5.07;1.73;;;32.80;53.30;;;;;;4948330;29;20035;-76
2023/08/23 16:57:41;;;;;;;3.45;1.83;;;32.80;53.80;;;;;;4947914;29;20274;-76
2023/08/23 17:00:10;;;;;;;6.10;2.20;;;33.00;54.00;;;;;;4948208;29;20035;-75
2023/08/23 17:02:44;;;;;;;5.53;2.85;;;33.20;53.70;;;;;;4947756;29;20036;-76
2023/08/23 17:05:10;;;;;;;3.65;2.13;;;33.70;53.50;;;;;;4948290;29;20038;-76
2023/08/23 17:07:36;;;;;;;6.68;2.58;;;33.60;53.50;;;;;;4947831;29;20040;-77
2023/08/23 17:10:03;;;;;;;4.82;2.30;;;33.30;54.00;;;;;;4948309;29;20027;-76
2023/08/23 17:12:29;;;;;;;5.93;2.90;;;33.20;54.70;;;;;;4947985;29;20031;-76
2023/08/23 17:14:55;;;;;;;4.15;2.70;;;32.90;55.10;;;;;;4947834;29;20038;-76
2023/08/23 17:17:22;;;;;;;5.63;2.58;;;32.70;55.80;;;;;;4947009;29;20071;-75
2023/08/23 17:19:48;;;;;;;5.63;2.55;;;32.40;56.40;;;;;;4947408;29;20036;-77
2023/08/23 17:22:14;;;;;;;4.20;2.38;;;32.20;56.90;;;;;;4947664;29;20043;-77
2023/08/23 17:24:40;;;;;;;3.88;2.47;;;32.00;57.40;;;;;;4931925;29;20336;-76
2023/08/23 17:27:06;;;;;;;7.78;2.60;;;31.70;57.90;;;;;;4928548;29;20036;-76
2023/08/23 17:29:32;;;;;;;5.88;2.70;;;31.50;58.30;;;;;;4928886;29;20036;-76
2023/08/23 17:31:58;;;;;;;7.90;2.60;;;31.40;58.20;;;;;;4929517;29;20035;-75
2023/08/23 17:34:24;;;;;;;6.18;2.60;;;31.30;58.80;;;;;;4937328;29;20039;-73
2023/08/23 17:36:49;;;;;;;5.78;2.80;;;31.30;58.80;;;;;;4942047;28;20024;-76
2023/08/23 17:39:18;;;;;;;4.72;2.40;;;31.20;59.20;;;;;;4955893;29;20027;-77
2023/08/23 17:41:44;;;;;;;8.00;3.13;;;31.30;59.10;;;;;;4956693;29;20043;-76
2023/08/23 17:44:09;;;;;;;6.07;2.83;;;31.10;59.20;;;;;;4946676;29;20051;-75
2023/08/23 17:46:36;;;;;;;5.38;2.53;;;31.00;59.40;;;;;;4947318;29;20039;-77
2023/08/23 17:49:03;;;;;;;5.85;2.63;;;30.90;59.60;;;;;;4947287;29;20039;-76
2023/08/23 17:51:30;;;;;;;5.75;2.60;;;30.80;59.80;;;;;;4947588;29;20039;-76
2023/08/23 17:53:56;;;;;;;4.10;2.57;;;30.70;60.00;;;;;;4946699;29;20020;-76
2023/08/23 17:56:22;;;;;;;7.45;2.72;;;30.50;60.50;;;;;;4947238;29;20058;-74
2023/08/23 17:58:47;;;;;;;7.85;2.75;;;30.40;60.30;;;;;;4946396;29;20352;-76
2023/08/23 18:01:15;;;;;;;4.28;2.40;;;30.10;59.60;;;;;;4947197;29;20087;-76
2023/08/23 18:03:40;;;;;;;7.85;2.42;;;29.90;59.80;;;;;;4946365;29;20090;-76
2023/08/23 18:06:06;;;;;;;4.93;2.60;;;29.70;59.70;;;;;;4946817;29;20306;-76
2023/08/23 18:08:32;;;;;;;3.95;2.60;;;29.50;59.90;;;;;;4961734;29;20044;-76
2023/08/23 18:10:58;;;;;;;5.43;2.65;;;29.40;60.00;;;;;;4947007;29;20094;-75
2023/08/23 18:13:23;;;;;;;5.05;2.70;;;29.40;59.90;;;;;;4947373;29;20027;-75
2023/08/23 18:15:49;;;;;;;4.70;2.63;;;29.20;60.00;;;;;;4946474;29;20320;-75
2023/08/23 18:18:15;;;;;;;5.53;2.65;;;29.10;60.10;;;;;;4946496;29;20259;-75
2023/08/23 18:20:41;;;;;;;3.92;2.47;;;29.00;60.30;;;;;;4946375;29;20082;-75
2023/08/23 18:23:10;;;;;;;4.47;2.72;;;28.80;60.50;;;;;;4943941;29;20080;-76
2023/08/23 18:25:36;;;;;;;4.90;2.20;;;28.70;60.90;;;;;;4926962;29;20214;-76
2023/08/23 18:28:02;;;;;;;5.43;2.78;;;28.60;61.50;;;;;;4926961;29;20048;-75
2023/08/23 18:30:29;;;;;;;6.78;2.97;;;28.40;61.40;;;;;;4933175;29;20031;-76
2023/08/23 18:32:55;;;;;;;5.03;2.70;;;28.30;61.80;;;;;;4927056;29;20040;-76
2023/08/23 18:35:21;;;;;;;6.80;3.00;;;28.20;62.10;;;;;;4927286;29;20504;-76
2023/08/23 18:37:46;;;;;;;4.93;2.92;;;28.10;62.40;;;;;;4925724;29;20079;-74
2023/08/23 18:40:12;;;;;;;5.28;3.00;;;28.00;62.70;;;;;;4935453;29;20037;-78
2023/08/23 18:42:38;;;;;;;5.75;2.80;;;28.00;63.40;;;;;;4944423;29;20095;-75
2023/08/23 18:45:04;;;;;;;6.30;2.80;;;27.90;63.50;;;;;;4945876;29;20042;-74
2023/08/23 18:47:30;;;;;;;10.25;3.05;;;27.90;63.60;;;;;;4946046;29;20028;-74
2023/08/23 18:49:56;;;;;;;8.30;3.30;;;27.80;63.80;;;;;;4945314;29;20042;-75
2023/08/23 18:52:22;;;;;;;5.75;2.85;;;27.80;63.90;;;;;;4945839;29;20023;-73
2023/08/23 18:54:48;;;;;;;8.40;3.13;;;27.70;64.00;;;;;;4944545;29;20032;-74
2023/08/23 18:57:13;;;;;;;6.80;3.20;;;27.70;64.30;;;;;;4945947;29;20099;-74
2023/08/23 18:59:39;;;;;;;5.32;3.47;;;27.70;64.50;;;;;;4945362;29;20086;-75
2023/08/23 19:02:05;;;;;;;9.07;3.38;;;27.60;64.70;;;;;;4946134;29;20054;-75
2023/08/23 19:04:31;;;;;;;4.75;3.35;;;27.60;65.00;;;;;;4946156;29;20324;-73
2023/08/23 19:06:57;;;;;;;6.45;3.70;;;27.50;65.20;;;;;;4945320;29;20040;-75
2023/08/23 19:09:23;;;;;;;5.60;3.33;;;27.50;65.40;;;;;;4945688;29;20103;-76
2023/08/23 19:11:48;;;;;;;6.18;3.13;;;27.50;65.60;;;;;;4944904;29;20039;-75
2023/08/23 19:14:14;;;;;;;7.90;3.30;;;27.40;66.00;;;;;;4944434;29;20343;-75
2023/08/23 19:16:40;;;;;;;5.35;2.65;;;27.30;66.40;;;;;;4944177;29;20212;-76
2023/08/23 19:19:06;;;;;;;6.38;3.28;;;27.20;66.50;;;;;;4945345;29;20158;-76
2023/08/23 19:21:32;;;;;;;6.68;3.28;;;27.10;67.60;;;;;;4945844;29;20023;-75
2023/08/23 19:23:58;;;;;;;7.10;3.65;;;27.10;67.00;;;;;;4935329;29;20084;-76
2023/08/23 19:26:24;;;;;;;7.63;4.00;;;27.10;67.20;;;;;;4926505;29;20075;-74
2023/08/23 19:28:49;;;;;;;9.32;4.50;;;27.10;67.70;;;;;;4926060;29;20056;-74
2023/08/23 19:31:15;;;;;;;6.45;4.10;;;27.00;68.20;;;;;;4951301;29;20036;-77
2023/08/23 19:33:41;;;;;;;8.55;4.45;;;26.90;68.70;;;;;;4940956;29;20035;-74
2023/08/23 19:36:07;;;;;;;8.45;4.43;;;26.70;69.10;;;;;;4940952;29;20055;-75
2023/08/23 19:38:32;;;;;;;7.18;3.85;;;26.70;69.70;;;;;;4926873;29;20040;-75
2023/08/23 19:40:58;;;;;;;7.15;3.92;;;26.60;69.50;;;;;;4932129;29;20338;-75